Virginia City, Nevada
Current Conditions -  °F | °C
As of 9:15 AM on Friday 19 Dec 2014 (Local Time) from KCXP Reporting Station
Few Clouds Few Clouds  
Wind Chill: 31°   Ceiling: Unl
Heat Index: 39°   Visibility: 10mi
Dew Point: 25°   Wind: 14mph
Humidity: 56%   Direction: 90°E
Pressure: 30.09"   Gusts: NA
Location:  39.31°N, 119.65°W
Report Text: KCXP 191715Z AUTO 09012KT 10SM FEW065 04/M04 A3009 RMK AO2
Loading
Personal Weather Stations






























Interactive Weather Map New forecast layout! Learn more

10-Day Weather Forecast

Advertisements
Track Severe Weather on mobile